Historyczne dane pomiarowe

Dodano dane terminowe – wersja testowa.

Dane z okresu 1951-2019

Wersja bazy: 1.34 [2019-03-16, lista zmian], aktualizacja planowana na 2019-04-15

Dane meteo z obszaru Polski uzyskane na podstawie danych udostępnionych przez Instytut Meteorologii i Gospodarki Wodnej – Państwowy Instytut Badawczy.

 

Wybierz Datę:    

       

TemperaturaWilgotnośćWiatrCiśnienieOpadyŚniegCzas trwania zjawisk
 Stacja t tx tn tng RH VA  wxwx mslp ppp RRR   cm mm wxwxwxwxwxwxwx
1983-08-14 13.2 17.4 7.8 4.9 80.5- 5.0 3.7---- 0.7------------
1983-08-13 15.2 22.8 12.0 12.7 80.3- 7.7 3.7---- 15.3------------
1983-08-12 20.2 26.6 12.5 9.4 70.8- 3.3 1.3---- 5.5------------
1983-08-11 20.2 25.9 14.5 11.9 72.3- 2.7 2.0---- 0.0------------
1983-08-10 18.6 24.2 11.4 8.8 76.3- 2.7 0.7---- 0.0------------
1983-08-09 16.8 24.8 11.4 9.3 88.0- 6.7 2.0---- 12.2------------
1983-08-08 17.1 22.5 13.2 11.4 89.3- 7.0 1.0---- 0.0------------
1983-08-07 15.1 20.3 11.9 8.6 91.0- 8.0 1.0---- 5.4------------
1983-08-06 15.0 18.1 8.5 5.7 77.3- 7.3 1.0---- 0.7------------
1983-08-05 12.4 15.0 8.2 6.3 74.8- 5.7 3.0---- 0.0------------
1983-08-04 10.5 15.5 9.9 9.9 90.0- 8.0 5.0---- 0.8------------
1983-08-03 17.7 20.9 15.2 16.2 82.3- 5.3 3.3---- 1.8------------
1983-08-02 19.8 26.0 17.5 13.5 80.3- 6.0 2.0---- 3.2------------
1983-08-01 21.2 31.3 9.9 5.7 62.8- 1.0 1.7---- 0.0------------
1983-07-31 17.6 25.4 8.0 4.5 67.3- 0.7 0.3---- 0.0------------
1983-07-30 18.1 23.6 15.4 14.0 78.5- 4.0 5.7---- 0.0------------
1983-07-29 19.1 24.7 13.5 10.4 73.3- 4.3 3.3---- 3.1------------
1983-07-28 23.2 28.7 19.2 16.5 67.8- 4.0 3.7---- 0.0------------
1983-07-27 21.8 32.3 11.3 7.9 67.0- 3.3 1.3---- 0.0------------
1983-07-26 20.8 28.4 11.9 8.4 63.5- 0.3 1.3---- 0.0------------
1983-07-25 15.3 21.3 9.0 6.5 75.5- 6.0 1.0---- 0.0------------
1983-07-24 16.7 21.1 10.2 6.8 76.3- 5.0 2.0---- 0.4------------
1983-07-23 17.3 21.4 12.4 11.3 75.5- 4.3 3.3---- 0.0------------
1983-07-22 12.2 14.9 9.4 7.8 83.5- 7.7 5.0---- 0.8------------
1983-07-21 13.4 16.8 10.2 9.3 68.3- 3.3 6.3---- 0.0------------
1983-07-20 15.0 25.8 12.6 13.6 87.5- 6.7 2.7---- 3.3------------
1983-07-19 23.2 28.9 18.5 16.2 69.3- 2.7 2.3---- 4.3------------
1983-07-18 22.8 31.4 12.7 10.0 67.0- 2.3 1.0---- 0.0------------
1983-07-17 20.9 24.7 15.3 12.2 72.0- 1.3 2.0---- 0.0------------
1983-07-16 21.0 27.7 13.7 10.8 72.5- 3.3 2.0---- 0.0------------
1983-07-15 18.9 24.6 13.9 11.8 75.5- 2.7 0.7---- 0.0------------
1983-07-14 18.3 22.7 15.7 14.0 84.3- 4.7 5.3---- 0.2------------
1983-07-13 20.4 25.7 15.7 14.5 76.5- 4.3 4.7---- 24.0------------
1983-07-12 18.0 20.2 16.3 15.0 85.5- 6.0 2.0---- 5.0------------
1983-07-11 18.3 25.7 15.0 12.2 83.3- 6.7 1.7---- 4.0------------
1983-07-10 21.8 28.6 12.0 8.6 60.8- 1.7 1.3---- 0.0------------
1983-07-09 20.9 27.9 10.2 7.0 59.3- 1.3 1.7---- 0.0------------
1983-07-08 21.6 28.2 11.0 7.3 52.8- 0.0 0.7---- 0.0------------
1983-07-07 22.6 29.0 12.7 10.2 66.3- 1.0 0.7---- 0.0------------
1983-07-06 21.2 28.9 10.9 8.4 66.3- 0.3 0.3---- 0.0------------
1983-07-05 19.5 25.5 11.4 8.9 73.0- 3.3 0.3---- 0.0------------
1983-07-04 20.0 26.3 11.2 9.0 69.5- 2.3 0.0---- 0.0------------
1983-07-03 19.0 23.8 11.2 8.6 64.0- 3.3 0.3---- 0.0------------
1983-07-02 18.0 27.2 14.5 12.0 76.8- 4.0 2.3---- 0.0------------
1983-07-01 19.3 26.2 12.5 9.4 73.5- 3.0 1.0---- 0.0------------
1983-06-30 15.5 23.1 6.7 5.0 73.3- 1.7 0.7---- 0.0------------
1983-06-29 13.4 18.2 8.2 6.0 67.8- 1.7 2.3---- 0.0------------
1983-06-28 16.0 23.2 14.7 14.5 82.5- 7.3 4.7---- 0.7------------
1983-06-27 20.6 25.5 16.4 13.7 72.5- 4.0 2.0---- 14.8------------
1983-06-26 20.1 25.2 15.3 13.0 76.5- 5.0 1.7---- 0.0------------
1983-06-25 22.0 27.5 15.9 13.4 63.3- 2.3 3.7---- 2.8------------
1983-06-24 17.1 25.7 5.2 2.3 68.0- 0.0 0.7---- 0.0------------
1983-06-23 14.9 21.4 5.4 2.4 61.3- 0.0 1.3---- 0.0------------
1983-06-22 16.0 22.8 11.9 9.4 63.5- 0.3 1.7---- 0.0------------
1983-06-21 18.7 24.4 9.4 6.7 66.5- 1.0 1.0---- 0.0------------
1983-06-20 17.4 22.0 15.4 14.2 84.0- 6.7 1.3---- 0.0------------
1983-06-19 13.6 15.9 11.7 11.3 92.3- 8.0 3.7---- 1.9------------
1983-06-18 11.3 13.0 8.7 8.2 88.0- 8.0 3.3---- 12.1------------
1983-06-17 11.6 13.9 8.6 7.5 76.5- 7.3 4.0---- 3.1------------
1983-06-16 11.5 14.2 8.5 8.4 78.8- 7.7 4.3---- 0.0------------
243.4 ms

 

Źródłem pochodzenia danych jest Instytut Meteorologii i Gospodarki Wodnej – Państwowy Instytut Badawczy. Dane Instytutu Meteorologii i Gospodarki Wodnej – Państwowego Instytutu Badawczego zostały przetworzone.

Dane źródłowe można odnaleźć na stronie https://dane.imgw.pl